createdAt,value
2017-10-08T00:01:08.283Z,2.50
2017-10-08T00:03:35.931Z,2.33
2017-10-08T00:06:03.504Z,2.03
2017-10-08T00:08:30.951Z,2.30
2017-10-08T00:10:58.388Z,2.63
2017-10-08T00:13:25.874Z,2.80
2017-10-08T00:15:53.502Z,2.60
2017-10-08T00:18:21.093Z,4.90
2017-10-08T00:20:48.521Z,2.53
2017-10-08T00:23:15.954Z,2.40
2017-10-08T00:25:43.591Z,2.40
2017-10-08T00:28:11.092Z,2.50
2017-10-08T00:30:38.596Z,2.67
2017-10-08T00:33:06.132Z,2.50
2017-10-08T00:35:33.559Z,3.40
2017-10-08T00:38:01.043Z,2.50
2017-10-08T00:40:28.474Z,3.10
2017-10-08T00:42:55.894Z,2.60
2017-10-08T00:45:23.408Z,3.53
2017-10-08T00:47:50.873Z,2.93
2017-10-08T00:50:19.243Z,3.10
2017-10-08T00:52:46.695Z,3.50
2017-10-08T00:55:14.137Z,4.33
2017-10-08T00:57:41.555Z,3.00
2017-10-08T01:00:09.104Z,2.63
2017-10-08T01:02:36.536Z,2.60
2017-10-08T01:05:03.983Z,2.10
2017-10-08T01:07:31.437Z,2.13
2017-10-08T01:09:58.832Z,2.30
2017-10-08T01:12:26.263Z,2.20
2017-10-08T01:14:53.812Z,2.33
2017-10-08T01:17:21.278Z,2.37
2017-10-08T01:19:48.727Z,1.90
2017-10-08T01:22:16.156Z,2.20
2017-10-08T01:24:43.838Z,2.37
2017-10-08T01:27:11.399Z,2.40
2017-10-08T01:29:38.848Z,2.20
2017-10-08T01:32:06.312Z,3.53
2017-10-08T01:34:33.764Z,2.40
2017-10-08T01:37:01.222Z,1.77
2017-10-08T01:39:28.676Z,1.80
2017-10-08T01:41:56.095Z,2.20
2017-10-08T01:44:23.591Z,1.97
2017-10-08T01:46:51.011Z,2.03
2017-10-08T01:49:18.444Z,2.07
2017-10-08T01:51:45.881Z,1.53
2017-10-08T01:54:13.424Z,2.20
2017-10-08T01:56:41.190Z,2.03
2017-10-08T01:59:08.616Z,2.23
2017-10-08T02:01:36.089Z,2.40
2017-10-08T02:04:03.534Z,1.60
2017-10-08T02:06:30.950Z,1.90
2017-10-08T02:08:58.395Z,2.20
2017-10-08T02:11:25.922Z,2.30
2017-10-08T02:13:53.363Z,2.50
2017-10-08T02:16:20.804Z,2.30
2017-10-08T02:18:48.293Z,2.13
2017-10-08T02:21:15.757Z,2.37
2017-10-08T02:23:43.367Z,2.03
2017-10-08T02:26:11.573Z,2.00
2017-10-08T02:28:39.032Z,2.10
2017-10-08T02:31:06.486Z,1.90
2017-10-08T02:33:33.948Z,2.40
2017-10-08T02:36:01.414Z,2.27
2017-10-08T02:38:29.027Z,2.13
2017-10-08T02:40:56.532Z,2.07
2017-10-08T02:43:23.980Z,1.60
2017-10-08T02:45:51.413Z,1.80
2017-10-08T02:48:18.893Z,1.90
2017-10-08T02:50:46.395Z,1.73
2017-10-08T02:53:13.812Z,1.83
2017-10-08T02:55:41.267Z,2.00
2017-10-08T02:58:08.724Z,1.60
2017-10-08T03:00:36.180Z,1.80
2017-10-08T03:03:03.643Z,2.27
2017-10-08T03:05:31.185Z,2.27
2017-10-08T03:07:58.623Z,1.90
2017-10-08T03:10:26.103Z,2.20
2017-10-08T03:12:53.527Z,1.93
2017-10-08T03:15:21.010Z,2.07
2017-10-08T03:17:48.443Z,1.73
2017-10-08T03:20:15.921Z,2.23
2017-10-08T03:22:43.360Z,2.00
2017-10-08T03:25:10.835Z,1.90
2017-10-08T03:27:38.261Z,2.40
2017-10-08T03:30:05.752Z,2.43
2017-10-08T03:32:33.391Z,1.87
2017-10-08T03:35:00.810Z,3.10
2017-10-08T03:37:28.431Z,2.40
2017-10-08T03:39:55.863Z,1.93
2017-10-08T03:42:23.288Z,3.90
2017-10-08T03:44:50.937Z,1.97
2017-10-08T03:47:18.451Z,2.13
2017-10-08T03:49:45.912Z,2.20
2017-10-08T03:52:13.444Z,2.50
2017-10-08T03:54:40.936Z,2.37
2017-10-08T03:57:08.378Z,2.03
2017-10-08T03:59:35.813Z,2.33
2017-10-08T04:02:03.231Z,2.80
2017-10-08T04:04:30.666Z,2.67
2017-10-08T04:06:58.103Z,2.67
2017-10-08T04:09:25.656Z,2.00
2017-10-08T04:11:53.072Z,2.13
2017-10-08T04:14:20.514Z,3.40
2017-10-08T04:16:48.949Z,2.30
2017-10-08T04:19:16.380Z,2.57
2017-10-08T04:21:43.804Z,5.27
2017-10-08T04:24:11.264Z,2.20
2017-10-08T04:26:38.688Z,2.67
2017-10-08T04:29:06.116Z,2.63
2017-10-08T04:31:33.570Z,2.20
2017-10-08T04:34:01.046Z,2.77
2017-10-08T04:36:28.489Z,2.80
2017-10-08T04:38:55.959Z,2.43
2017-10-08T04:41:23.423Z,2.40
2017-10-08T04:43:50.877Z,2.63
2017-10-08T04:46:18.299Z,3.80
2017-10-08T04:48:45.751Z,3.17
2017-10-08T04:51:13.345Z,3.00
2017-10-08T04:53:41.100Z,2.77
2017-10-08T04:56:08.535Z,2.67
2017-10-08T04:58:36.047Z,2.97
2017-10-08T05:01:03.777Z,2.67
2017-10-08T05:03:31.236Z,2.50
2017-10-08T05:05:58.640Z,2.73
2017-10-08T05:08:26.070Z,3.07
2017-10-08T05:10:53.496Z,2.60
2017-10-08T05:13:21.024Z,2.77
2017-10-08T05:15:48.513Z,3.50
2017-10-08T05:18:16.040Z,3.10
2017-10-08T05:20:43.609Z,3.13
2017-10-08T05:23:11.196Z,3.07
2017-10-08T05:25:38.610Z,2.83
2017-10-08T05:28:06.099Z,3.47
2017-10-08T05:30:33.558Z,8.30
2017-10-08T05:33:00.996Z,3.17
2017-10-08T05:35:28.415Z,3.07
2017-10-08T05:37:55.843Z,3.70
2017-10-08T05:40:23.287Z,4.80
2017-10-08T05:42:50.848Z,3.20
2017-10-08T05:45:18.275Z,3.30
2017-10-08T05:47:45.760Z,3.13
2017-10-08T05:50:13.512Z,2.80
2017-10-08T05:52:40.960Z,2.40
2017-10-08T05:55:08.432Z,3.20
2017-10-08T05:57:35.887Z,2.90
2017-10-08T06:00:03.324Z,3.27
2017-10-08T06:02:30.743Z,4.67
2017-10-08T06:04:58.168Z,5.40
2017-10-08T06:07:25.615Z,2.83
2017-10-08T06:09:53.165Z,3.63
2017-10-08T06:12:20.622Z,2.83
2017-10-08T06:14:48.047Z,2.40
2017-10-08T06:17:15.612Z,2.63
2017-10-08T06:19:43.039Z,2.70
2017-10-08T06:22:10.761Z,3.13
2017-10-08T06:24:38.208Z,2.63
2017-10-08T06:27:05.671Z,3.40
2017-10-08T06:29:33.369Z,2.90
2017-10-08T06:32:00.883Z,3.17
2017-10-08T06:34:28.345Z,2.33
2017-10-08T06:36:55.785Z,3.30
2017-10-08T06:39:23.264Z,3.23
2017-10-08T06:41:50.696Z,2.97
2017-10-08T06:44:18.168Z,2.40
2017-10-08T06:46:45.604Z,2.73
2017-10-08T06:49:13.028Z,3.43
2017-10-08T06:51:40.536Z,2.90
2017-10-08T06:54:07.972Z,3.07
2017-10-08T06:56:35.451Z,3.70
2017-10-08T06:59:02.907Z,3.00
2017-10-08T07:01:30.345Z,3.70
2017-10-08T07:03:57.825Z,3.70
2017-10-08T07:06:25.361Z,4.00
2017-10-08T07:08:52.993Z,4.17
2017-10-08T07:11:21.183Z,2.67
2017-10-08T07:13:48.874Z,3.50
2017-10-08T07:16:16.295Z,4.03
2017-10-08T07:18:43.735Z,2.90
2017-10-08T07:21:11.163Z,3.20
2017-10-08T07:23:38.700Z,3.70
2017-10-08T07:26:06.124Z,4.17
2017-10-08T07:28:33.548Z,4.63
2017-10-08T07:31:01.054Z,3.77
2017-10-08T07:33:28.524Z,3.93
2017-10-08T07:35:55.943Z,3.90
2017-10-08T07:38:23.383Z,3.13
2017-10-08T07:40:50.800Z,2.60
2017-10-08T07:43:18.339Z,3.23
2017-10-08T07:45:45.768Z,2.67
2017-10-08T07:48:13.205Z,2.90
2017-10-08T07:50:40.720Z,2.90
2017-10-08T07:53:08.153Z,3.10
2017-10-08T07:55:35.636Z,2.70
2017-10-08T07:58:03.084Z,3.10
2017-10-08T08:00:30.519Z,2.90
2017-10-08T08:02:57.949Z,3.30
2017-10-08T08:05:25.371Z,2.87
2017-10-08T08:07:52.803Z,3.40
2017-10-08T08:10:20.248Z,2.43
2017-10-08T08:12:47.687Z,3.10
2017-10-08T08:15:15.195Z,2.90
2017-10-08T08:17:42.715Z,3.40
2017-10-08T08:20:10.150Z,3.00
2017-10-08T08:22:37.655Z,4.90
2017-10-08T08:25:05.107Z,3.87
2017-10-08T08:27:32.555Z,4.10
2017-10-08T08:29:59.989Z,3.73
2017-10-08T08:32:27.401Z,3.50
2017-10-08T08:34:54.848Z,2.70
2017-10-08T08:37:22.271Z,2.60
2017-10-08T08:39:49.751Z,3.10
2017-10-08T08:42:17.244Z,2.90
2017-10-08T08:44:44.756Z,3.17
2017-10-08T08:47:12.182Z,3.43
2017-10-08T08:49:39.661Z,3.73
2017-10-08T08:52:07.121Z,5.37
2017-10-08T08:54:34.583Z,2.83
2017-10-08T08:57:02.019Z,3.40
2017-10-08T08:59:29.458Z,2.67
2017-10-08T09:01:57.255Z,2.50
2017-10-08T09:04:24.691Z,2.83
2017-10-08T09:06:52.114Z,3.50
2017-10-08T09:09:19.553Z,3.37
2017-10-08T09:11:46.992Z,1.90
2017-10-08T09:14:14.483Z,2.97
2017-10-08T09:16:41.996Z,2.83
2017-10-08T09:19:09.414Z,3.13
2017-10-08T09:21:36.907Z,3.00
2017-10-08T09:24:04.372Z,2.80
2017-10-08T09:26:31.803Z,2.10
2017-10-08T09:28:59.260Z,3.00
2017-10-08T09:31:26.694Z,3.63
2017-10-08T09:33:54.109Z,3.50
2017-10-08T09:36:21.654Z,2.97
2017-10-08T09:38:49.074Z,2.83
2017-10-08T09:41:16.512Z,4.20
2017-10-08T09:43:44.966Z,3.17
2017-10-08T09:46:12.404Z,4.60
2017-10-08T09:48:39.848Z,2.93
2017-10-08T09:51:07.276Z,4.50
2017-10-08T09:53:34.759Z,3.87
2017-10-08T09:56:02.187Z,2.13
2017-10-08T09:58:29.611Z,3.90
2017-10-08T10:00:57.959Z,3.60
2017-10-08T10:03:25.391Z,3.60
2017-10-08T10:05:52.871Z,4.13
2017-10-08T10:08:20.287Z,2.77
2017-10-08T10:10:48.474Z,3.97
2017-10-08T10:13:15.902Z,2.53
2017-10-08T10:15:43.327Z,4.03
2017-10-08T10:18:10.796Z,4.30
2017-10-08T10:20:38.228Z,3.53
2017-10-08T10:23:05.671Z,3.50
2017-10-08T10:25:33.147Z,3.67
2017-10-08T10:28:00.688Z,4.10
2017-10-08T10:30:28.116Z,2.47
2017-10-08T10:32:55.527Z,2.70
2017-10-08T10:35:22.983Z,3.47
2017-10-08T10:37:50.516Z,2.23
2017-10-08T10:40:18.273Z,3.03
2017-10-08T10:42:45.729Z,3.27
2017-10-08T10:45:13.143Z,2.70
2017-10-08T10:47:40.583Z,3.73
2017-10-08T10:50:07.999Z,2.30
2017-10-08T10:52:35.472Z,3.20
2017-10-08T10:55:03.011Z,2.37
2017-10-08T10:57:30.430Z,3.00
2017-10-08T10:59:57.916Z,2.93
2017-10-08T11:02:25.375Z,4.80
2017-10-08T11:04:52.833Z,3.23
2017-10-08T11:07:20.255Z,2.70
2017-10-08T11:09:47.748Z,2.70
2017-10-08T11:12:15.180Z,3.20
2017-10-08T11:14:42.595Z,2.90
2017-10-08T11:17:10.027Z,2.40
2017-10-08T11:19:37.546Z,2.73
2017-10-08T11:22:05.035Z,2.80
2017-10-08T11:24:32.493Z,2.77
2017-10-08T11:26:59.939Z,2.53
2017-10-08T11:29:27.399Z,2.87
2017-10-08T11:31:54.812Z,2.80
2017-10-08T11:34:22.312Z,2.23
2017-10-08T11:36:50.568Z,3.47
2017-10-08T11:39:18.040Z,3.70
2017-10-08T11:41:45.469Z,3.90
2017-10-08T11:44:13.668Z,3.07
2017-10-08T11:46:41.083Z,3.40
2017-10-08T11:49:08.600Z,3.60
2017-10-08T11:51:36.356Z,3.00
2017-10-08T11:54:03.783Z,3.00
2017-10-08T11:56:31.253Z,2.70
2017-10-08T11:58:58.725Z,4.43
2017-10-08T12:01:26.496Z,3.37
2017-10-08T12:03:54.241Z,4.30
2017-10-08T12:06:21.688Z,3.40
2017-10-08T12:08:49.153Z,3.57
2017-10-08T12:11:16.605Z,3.43
2017-10-08T12:13:44.032Z,5.73
2017-10-08T12:16:11.457Z,3.33
2017-10-08T12:18:38.975Z,3.70
2017-10-08T12:21:06.393Z,3.60
2017-10-08T12:23:33.837Z,3.70
2017-10-08T12:26:01.247Z,3.60
2017-10-08T12:28:28.808Z,3.70
2017-10-08T12:30:56.579Z,3.30
2017-10-08T12:33:24.026Z,2.93
2017-10-08T12:35:51.456Z,3.27
2017-10-08T12:38:18.866Z,3.60
2017-10-08T12:40:46.295Z,3.20
2017-10-08T12:43:13.900Z,3.53
2017-10-08T12:45:41.317Z,3.77
2017-10-08T12:48:09.067Z,3.80
2017-10-08T12:50:36.499Z,4.03
2017-10-08T12:53:03.934Z,3.57
2017-10-08T12:55:31.390Z,3.33
2017-10-08T12:57:59.572Z,3.50
2017-10-08T13:00:27.272Z,3.43
2017-10-08T13:02:54.696Z,2.90
2017-10-08T13:05:22.180Z,2.80
2017-10-08T13:07:49.603Z,3.33
2017-10-08T13:10:17.020Z,3.93
2017-10-08T13:12:44.468Z,2.77
2017-10-08T13:15:11.882Z,2.90
2017-10-08T13:17:39.477Z,3.90
2017-10-08T13:20:07.122Z,3.90
2017-10-08T13:22:34.688Z,3.43
2017-10-08T13:25:02.107Z,3.27
2017-10-08T13:27:29.544Z,4.70
2017-10-08T13:29:56.963Z,4.00
2017-10-08T13:32:24.511Z,4.37
2017-10-08T13:34:51.972Z,3.43
2017-10-08T13:37:19.390Z,3.27
2017-10-08T13:39:46.807Z,3.50
2017-10-08T13:42:14.349Z,3.70
2017-10-08T13:44:41.766Z,3.37
2017-10-08T13:47:09.188Z,3.53
2017-10-08T13:49:36.623Z,3.47
2017-10-08T13:52:04.052Z,4.80
2017-10-08T13:54:31.797Z,3.67
2017-10-08T13:57:00.000Z,3.70
2017-10-08T13:59:27.435Z,3.93
2017-10-08T14:01:54.852Z,3.00
2017-10-08T14:04:22.281Z,3.17
2017-10-08T14:06:49.740Z,2.97
2017-10-08T14:09:17.190Z,2.67
2017-10-08T14:11:44.646Z,3.30
2017-10-08T14:14:12.190Z,3.80
2017-10-08T14:16:39.594Z,3.60
2017-10-08T14:19:07.024Z,4.13
2017-10-08T14:21:34.464Z,3.83
2017-10-08T14:24:02.015Z,7.00
2017-10-08T14:26:29.468Z,6.80
2017-10-08T14:28:57.615Z,8.90
2017-10-08T14:31:25.309Z,6.90
2017-10-08T14:33:52.737Z,6.63
2017-10-08T14:36:20.215Z,6.20
2017-10-08T14:38:47.628Z,5.50
2017-10-08T14:41:15.052Z,4.83
2017-10-08T14:43:42.586Z,3.53
2017-10-08T14:46:10.051Z,4.23
2017-10-08T14:48:37.800Z,5.27
2017-10-08T14:51:05.244Z,4.57
2017-10-08T14:53:32.716Z,21.43
2017-10-08T14:56:00.139Z,4.73
2017-10-08T14:58:27.555Z,3.57
2017-10-08T15:00:55.033Z,3.63
2017-10-08T15:03:22.440Z,4.13
2017-10-08T15:05:49.887Z,4.33
2017-10-08T15:08:17.323Z,3.60
2017-10-08T15:10:45.729Z,4.30
2017-10-08T15:13:13.214Z,4.17
2017-10-08T15:15:40.668Z,3.10
2017-10-08T15:18:08.095Z,3.80
2017-10-08T15:20:35.535Z,3.67
2017-10-08T15:23:03.126Z,3.87
2017-10-08T15:25:30.644Z,4.63
2017-10-08T15:27:58.240Z,3.40
2017-10-08T15:30:25.700Z,5.10
2017-10-08T15:32:53.268Z,3.60
2017-10-08T15:35:21.003Z,5.77
2017-10-08T15:37:48.425Z,6.40
2017-10-08T15:40:16.168Z,5.27
2017-10-08T15:42:44.517Z,4.90
2017-10-08T15:45:12.060Z,7.33
2017-10-08T15:47:39.489Z,7.30
2017-10-08T15:50:06.911Z,5.50
2017-10-08T15:52:34.344Z,4.90
2017-10-08T15:55:01.819Z,4.43
2017-10-08T15:57:29.678Z,4.87
2017-10-08T15:59:57.373Z,5.13
2017-10-08T16:02:24.796Z,5.17
2017-10-08T16:04:52.259Z,5.57
2017-10-08T16:07:19.789Z,4.90
2017-10-08T16:09:47.239Z,5.83
2017-10-08T16:12:14.676Z,5.23
2017-10-08T16:14:42.152Z,4.77
2017-10-08T16:17:09.584Z,6.50
2017-10-08T16:19:36.999Z,5.47
2017-10-08T16:22:04.427Z,6.07
2017-10-08T16:24:31.860Z,4.77
2017-10-08T16:26:59.355Z,4.97
2017-10-08T16:29:26.894Z,4.33
2017-10-08T16:31:54.412Z,5.80
2017-10-08T16:34:22.007Z,4.70
2017-10-08T16:36:49.579Z,5.43
2017-10-08T16:39:17.016Z,5.13
2017-10-08T16:41:44.481Z,4.67
2017-10-08T16:44:11.952Z,5.30
2017-10-08T16:46:39.575Z,6.53
2017-10-08T16:49:07.028Z,5.27
2017-10-08T16:51:34.640Z,6.33
2017-10-08T16:54:02.048Z,7.40
2017-10-08T16:56:29.473Z,6.90
2017-10-08T16:58:57.784Z,7.07
2017-10-08T17:01:25.361Z,7.47
2017-10-08T17:03:52.820Z,7.23
2017-10-08T17:06:20.232Z,8.03
2017-10-08T17:08:47.732Z,7.80
2017-10-08T17:11:15.180Z,7.50
2017-10-08T17:13:42.645Z,8.93
2017-10-08T17:16:10.279Z,10.77
2017-10-08T17:18:38.492Z,8.43
2017-10-08T17:21:06.243Z,6.83
2017-10-08T17:23:33.870Z,7.80
2017-10-08T17:26:01.356Z,8.80
2017-10-08T17:28:28.815Z,6.53
2017-10-08T17:30:56.279Z,6.67
2017-10-08T17:33:23.825Z,6.87
2017-10-08T17:35:51.283Z,5.73
2017-10-08T17:38:18.691Z,6.27
2017-10-08T17:40:46.115Z,7.53
2017-10-08T17:43:13.664Z,6.43
2017-10-08T17:45:41.400Z,7.20
2017-10-08T17:48:08.820Z,6.90
2017-10-08T17:50:36.328Z,6.03
2017-10-08T17:53:04.031Z,5.67
2017-10-08T17:55:31.556Z,5.07
2017-10-08T17:57:58.982Z,5.87
2017-10-08T18:00:26.414Z,5.93
2017-10-08T18:02:54.755Z,6.00
2017-10-08T18:05:22.244Z,5.03
2017-10-08T18:07:49.667Z,6.50
2017-10-08T18:10:17.114Z,6.00
2017-10-08T18:12:44.535Z,6.40
2017-10-08T18:15:12.010Z,6.40
2017-10-08T18:17:39.451Z,5.90
2017-10-08T18:20:06.932Z,6.77
2017-10-08T18:22:34.395Z,6.37
2017-10-08T18:25:01.833Z,5.67
2017-10-08T18:27:29.282Z,6.07
2017-10-08T18:29:56.758Z,6.13
2017-10-08T18:32:24.316Z,9.07
2017-10-08T18:34:51.736Z,7.47
2017-10-08T18:37:19.176Z,8.47
2017-10-08T18:39:46.690Z,7.30
2017-10-08T18:42:14.118Z,7.97
2017-10-08T18:44:41.543Z,6.43
2017-10-08T18:47:09.057Z,8.03
2017-10-08T18:49:36.520Z,7.87
2017-10-08T18:52:03.951Z,8.07
2017-10-08T18:54:31.733Z,7.00
2017-10-08T18:56:59.207Z,6.53
2017-10-08T18:59:26.816Z,7.13
2017-10-08T19:01:54.403Z,5.07
2017-10-08T19:04:21.872Z,5.10
2017-10-08T19:06:49.308Z,4.57
2017-10-08T19:09:16.771Z,4.83
2017-10-08T19:11:44.215Z,5.43
2017-10-08T19:14:11.688Z,5.80
2017-10-08T19:16:39.144Z,4.47
2017-10-08T19:19:06.581Z,4.50
2017-10-08T19:21:34.007Z,4.60
2017-10-08T19:24:01.423Z,5.67
2017-10-08T19:26:28.966Z,4.73
2017-10-08T19:28:56.387Z,6.47
2017-10-08T19:31:23.884Z,5.40
2017-10-08T19:33:51.525Z,4.30
2017-10-08T19:36:19.020Z,5.17
2017-10-08T19:38:46.558Z,4.03
2017-10-08T19:41:13.984Z,4.60
2017-10-08T19:43:41.472Z,4.60
2017-10-08T19:46:09.223Z,4.83
2017-10-08T19:48:36.791Z,4.83
2017-10-08T19:51:04.365Z,4.70
2017-10-08T19:53:31.908Z,4.37
2017-10-08T19:55:59.361Z,5.50
2017-10-08T19:58:26.775Z,3.90
2017-10-08T20:00:54.258Z,4.73
2017-10-08T20:03:21.730Z,5.03
2017-10-08T20:05:49.175Z,4.83
2017-10-08T20:08:16.636Z,9.30
2017-10-08T20:10:44.100Z,5.80
2017-10-08T20:13:11.519Z,6.60
2017-10-08T20:15:38.951Z,6.80
2017-10-08T20:18:06.387Z,5.10
2017-10-08T20:20:33.827Z,3.80
2017-10-08T20:23:01.255Z,3.30
2017-10-08T20:25:28.817Z,3.90
2017-10-08T20:27:56.293Z,3.20
2017-10-08T20:30:23.740Z,3.20
2017-10-08T20:32:51.200Z,4.20
2017-10-08T20:35:18.624Z,4.00
2017-10-08T20:37:46.125Z,4.40
2017-10-08T20:40:14.427Z,3.70
2017-10-08T20:42:41.863Z,3.70
2017-10-08T20:45:09.413Z,4.07
2017-10-08T20:47:36.844Z,3.30
2017-10-08T20:50:04.276Z,5.33
2017-10-08T20:52:31.772Z,4.03
2017-10-08T20:54:59.241Z,3.80
2017-10-08T20:57:26.706Z,4.03
2017-10-08T20:59:54.144Z,4.87
2017-10-08T21:02:21.593Z,5.13
2017-10-08T21:04:49.034Z,6.53
2017-10-08T21:07:16.447Z,5.23
2017-10-08T21:09:44.812Z,5.07
2017-10-08T21:12:12.260Z,8.30
2017-10-08T21:14:39.711Z,6.17
2017-10-08T21:17:07.256Z,5.23
2017-10-08T21:19:34.689Z,7.17
2017-10-08T21:22:02.102Z,5.90
2017-10-08T21:24:29.540Z,6.13
2017-10-08T21:26:56.967Z,5.40
2017-10-08T21:29:24.496Z,5.30
2017-10-08T21:31:51.919Z,9.10
2017-10-08T21:34:19.349Z,5.40
2017-10-08T21:36:46.910Z,6.30
2017-10-08T21:39:14.337Z,6.03
2017-10-08T21:41:41.824Z,5.30
2017-10-08T21:44:09.284Z,5.90
2017-10-08T21:46:36.944Z,8.23
2017-10-08T21:49:04.376Z,6.40
2017-10-08T21:51:31.834Z,6.73
2017-10-08T21:53:59.323Z,5.40
2017-10-08T21:56:26.878Z,5.40
2017-10-08T21:58:54.307Z,4.20
2017-10-08T22:01:22.088Z,4.60
2017-10-08T22:03:49.512Z,5.10
2017-10-08T22:06:17.007Z,5.40
2017-10-08T22:08:44.452Z,5.30
2017-10-08T22:11:11.892Z,6.13
2017-10-08T22:13:39.372Z,5.73
2017-10-08T22:16:06.817Z,4.97
2017-10-08T22:18:34.240Z,6.80
2017-10-08T22:21:01.669Z,6.43
2017-10-08T22:23:29.195Z,7.43
2017-10-08T22:25:56.626Z,6.80
2017-10-08T22:28:24.115Z,8.60
2017-10-08T22:30:51.772Z,7.10
2017-10-08T22:33:19.225Z,7.97
2017-10-08T22:35:46.783Z,7.93
2017-10-08T22:38:14.214Z,7.83
2017-10-08T22:40:41.714Z,7.53
2017-10-08T22:43:09.473Z,6.93
2017-10-08T22:45:37.248Z,8.23
2017-10-08T22:48:04.872Z,7.20
2017-10-08T22:50:32.456Z,6.83
2017-10-08T22:52:59.888Z,7.67
2017-10-08T22:55:27.363Z,11.30
2017-10-08T22:57:54.983Z,8.70
2017-10-08T23:00:23.193Z,8.60
2017-10-08T23:02:50.595Z,8.63
2017-10-08T23:05:18.040Z,8.93
2017-10-08T23:07:45.591Z,8.17
2017-10-08T23:10:13.029Z,7.93
2017-10-08T23:12:40.666Z,8.70
2017-10-08T23:15:08.115Z,8.47
2017-10-08T23:17:35.704Z,7.03
2017-10-08T23:20:03.156Z,10.70
2017-10-08T23:22:30.579Z,17.73
2017-10-08T23:24:58.063Z,8.93
2017-10-08T23:27:25.529Z,8.30
2017-10-08T23:29:52.947Z,7.33
2017-10-08T23:32:20.436Z,9.37
2017-10-08T23:34:47.868Z,8.60
2017-10-08T23:37:15.296Z,7.23
2017-10-08T23:39:42.828Z,9.70
2017-10-08T23:42:10.447Z,10.50
2017-10-08T23:44:37.896Z,8.87
2017-10-08T23:47:05.475Z,7.67
2017-10-08T23:49:32.894Z,9.27
2017-10-08T23:52:00.394Z,8.33
2017-10-08T23:54:28.020Z,8.47
2017-10-08T23:56:55.511Z,8.20
2017-10-08T23:59:22.968Z,7.70
